Time;durP1;ratioP1;P1;durP2;ratioP2;P2;SDS_P1;SDS_P2;PMS_P1;PMS_P2;Temp;Humidity;BMP_temperature;BMP_pressure;BME280_temperature;BME280_humidity;BME280_pressure;Samples;Min_cycle;Max_cycle;Signal;HPM_P1;HPM_P2
2021/08/09 00:01:08;;;;;;;1.97;1.87;;;25.30;63.90;;;;;;5038762;28;20449;-42
2021/08/09 00:03:39;;;;;;;4.50;2.07;;;25.10;64.90;;;;;;5042469;28;20457;-42
2021/08/09 00:06:11;;;;;;;2.23;2.03;;;25.30;63.10;;;;;;5038129;28;20951;-42
2021/08/09 00:08:42;;;;;;;4.70;2.40;;;25.10;64.30;;;;;;5039854;28;20449;-42
2021/08/09 00:11:13;;;;;;;2.87;2.53;;;25.20;63.20;;;;;;5038621;28;20465;-41
2021/08/09 00:13:44;;;;;;;2.70;2.10;;;25.10;63.80;;;;;;5039076;28;20453;-42
2021/08/09 00:16:16;;;;;;;2.33;2.13;;;25.10;63.30;;;;;;5038317;28;20463;-42
2021/08/09 00:18:48;;;;;;;2.50;2.30;;;25.00;64.70;;;;;;5038707;28;20532;-42
2021/08/09 00:21:21;;;;;;;4.00;3.17;;;25.10;63.40;;;;;;5045695;28;20827;-42
2021/08/09 00:23:52;;;;;;;4.03;1.97;;;24.90;63.60;;;;;;5045765;28;20424;-43
2021/08/09 00:26:23;;;;;;;3.17;2.07;;;24.70;64.60;;;;;;5047200;28;20457;-41
2021/08/09 00:28:54;;;;;;;2.33;2.13;;;24.60;64.10;;;;;;5042292;28;20431;-42
2021/08/09 00:31:28;;;;;;;3.47;2.00;;;24.60;65.80;;;;;;5044587;28;20452;-42
2021/08/09 00:33:59;;;;;;;1.83;1.73;;;24.60;66.80;;;;;;5050281;28;20453;-42
2021/08/09 00:36:30;;;;;;;2.77;2.57;;;24.70;65.50;;;;;;5040358;28;20470;-42
2021/08/09 00:39:01;;;;;;;3.63;2.50;;;24.80;65.90;;;;;;5027128;28;20457;-41
2021/08/09 00:41:32;;;;;;;3.73;1.97;;;24.70;67.30;;;;;;5030093;28;20450;-42
2021/08/09 00:44:03;;;;;;;3.93;2.27;;;24.70;66.30;;;;;;5042430;28;20445;-42
2021/08/09 00:46:35;;;;;;;2.43;1.70;;;24.70;66.70;;;;;;5041911;28;20428;-43
2021/08/09 00:49:06;;;;;;;3.93;2.60;;;24.60;66.00;;;;;;5040605;28;20479;-41
2021/08/09 00:51:38;;;;;;;2.13;2.03;;;24.50;66.20;;;;;;5040665;28;20446;-42
2021/08/09 00:54:10;;;;;;;2.83;2.30;;;24.30;66.30;;;;;;5042643;28;20735;-42
2021/08/09 00:56:42;;;;;;;2.80;2.60;;;24.20;67.10;;;;;;5041256;28;21082;-42
2021/08/09 00:59:13;;;;;;;3.60;2.20;;;24.10;68.80;;;;;;5041890;28;20432;-42
2021/08/09 01:01:46;;;;;;;2.50;2.07;;;24.10;68.10;;;;;;5041473;28;20445;-41
2021/08/09 01:04:17;;;;;;;2.67;2.30;;;24.10;68.80;;;;;;5047512;28;20427;-42
2021/08/09 01:06:49;;;;;;;2.47;2.00;;;24.10;68.30;;;;;;5044122;28;20458;-42
2021/08/09 01:09:23;;;;;;;2.57;2.37;;;24.20;68.00;;;;;;5042446;28;20456;-42
2021/08/09 01:12:00;;;;;;;3.67;2.07;;;24.10;69.00;;;;;;5041102;28;20453;-42
2021/08/09 01:14:52;;;;;;;2.73;1.90;;;24.10;69.20;;;;;;5041392;28;20424;-42
2021/08/09 01:17:30;;;;;;;2.17;2.07;;;24.10;68.60;;;;;;5041344;28;20517;-42
2021/08/09 01:20:12;;;;;;;2.50;2.30;;;24.00;69.30;;;;;;5041074;28;20437;-42
2021/08/09 01:22:53;;;;;;;2.43;2.07;;;23.90;69.10;;;;;;5041031;28;20519;-43
2021/08/09 01:25:31;;;;;;;2.40;2.20;;;23.90;69.80;;;;;;5040830;28;20479;-41
2021/08/09 01:28:05;;;;;;;2.37;2.17;;;23.90;69.60;;;;;;5042729;28;20513;-42
2021/08/09 01:30:39;;;;;;;1.90;1.80;;;23.70;70.10;;;;;;5041000;28;20517;-41
2021/08/09 01:33:13;;;;;;;2.13;2.00;;;23.70;70.70;;;;;;5041725;28;20540;-42
2021/08/09 01:35:45;;;;;;;2.10;2.00;;;23.60;71.40;;;;;;5039648;28;20549;-42
2021/08/09 01:38:17;;;;;;;3.80;2.30;;;23.50;72.50;;;;;;5040679;28;20954;-42
2021/08/09 01:40:50;;;;;;;2.17;1.97;;;23.50;72.50;;;;;;5041214;28;20445;-42
2021/08/09 01:43:23;;;;;;;2.77;2.03;;;23.60;72.50;;;;;;5041756;28;20478;-41
2021/08/09 01:45:56;;;;;;;2.40;2.10;;;23.70;72.50;;;;;;5040684;28;20486;-42
2021/08/09 01:48:27;;;;;;;3.93;2.63;;;23.60;71.90;;;;;;5041861;28;20481;-42
2021/08/09 01:50:58;;;;;;;2.40;2.13;;;23.60;73.10;;;;;;5038576;28;20436;-41
2021/08/09 01:53:30;;;;;;;3.10;2.13;;;23.50;74.40;;;;;;5031734;28;20464;-43
2021/08/09 01:56:01;;;;;;;2.67;2.47;;;23.50;73.50;;;;;;5046029;28;20439;-42
2021/08/09 01:58:33;;;;;;;3.13;2.30;;;23.50;72.00;;;;;;5046960;28;20460;-42
2021/08/09 02:01:05;;;;;;;2.17;2.07;;;23.50;73.20;;;;;;5035578;28;20449;-41
2021/08/09 02:03:36;;;;;;;4.67;2.50;;;23.50;73.80;;;;;;5047917;28;20485;-42
2021/08/09 02:06:07;;;;;;;2.23;1.80;;;23.40;74.70;;;;;;5038605;28;20594;-42
2021/08/09 02:08:39;;;;;;;2.43;1.90;;;23.20;76.20;;;;;;5038921;28;20528;-42
2021/08/09 02:11:16;;;;;;;3.87;2.33;;;23.10;76.70;;;;;;5039283;28;20434;-42
2021/08/09 02:13:52;;;;;;;2.97;2.20;;;23.10;77.30;;;;;;5040575;28;20441;-42
2021/08/09 02:16:31;;;;;;;2.53;2.13;;;22.90;77.70;;;;;;5042512;28;20449;-42
2021/08/09 02:19:04;;;;;;;2.57;1.97;;;22.90;78.00;;;;;;5074305;27;20469;-42
2021/08/09 02:21:42;;;;;;;3.67;2.10;;;22.80;78.20;;;;;;5051478;27;20439;-42
2021/08/09 02:24:17;;;;;;;2.40;1.70;;;22.70;78.50;;;;;;5051159;27;20545;-42
2021/08/09 02:26:51;;;;;;;2.30;2.10;;;22.60;79.40;;;;;;5039185;28;20471;-42
2021/08/09 02:29:28;;;;;;;2.67;2.47;;;22.50;80.20;;;;;;5041180;28;20735;-41
2021/08/09 02:32:01;;;;;;;3.10;2.80;;;22.40;81.00;;;;;;5042785;28;20485;-40
2021/08/09 02:34:34;;;;;;;2.63;2.43;;;22.30;81.80;;;;;;5039206;28;20449;-41
2021/08/09 02:37:05;;;;;;;2.63;2.43;;;22.20;82.30;;;;;;5038575;28;20576;-42
2021/08/09 02:39:37;;;;;;;3.53;2.10;;;22.10;83.40;;;;;;5046810;28;20435;-41
2021/08/09 02:42:09;;;;;;;3.83;3.50;;;22.00;84.20;;;;;;5040047;28;20464;-41
2021/08/09 02:44:43;;;;;;;3.93;2.47;;;22.00;84.60;;;;;;5040078;28;20448;-43
2021/08/09 02:47:16;;;;;;;4.60;3.07;;;21.90;84.60;;;;;;5040161;28;20443;-42
2021/08/09 02:49:49;;;;;;;4.10;2.67;;;21.80;84.60;;;;;;5039990;28;20484;-42
2021/08/09 02:52:21;;;;;;;2.17;1.97;;;21.70;85.60;;;;;;5039217;28;20500;-41
2021/08/09 02:54:52;;;;;;;2.53;1.90;;;21.70;85.70;;;;;;5036437;28;20468;-42
2021/08/09 02:57:26;;;;;;;2.53;2.33;;;21.60;86.10;;;;;;5039314;28;20453;-42
2021/08/09 03:00:00;;;;;;;2.53;1.90;;;21.60;86.50;;;;;;5044933;28;20437;-42
2021/08/09 03:02:33;;;;;;;1.87;1.77;;;21.40;87.00;;;;;;5095205;27;20502;-41
2021/08/09 03:05:06;;;;;;;3.90;1.73;;;21.40;87.70;;;;;;5057757;27;21147;-42
2021/08/09 03:07:38;;;;;;;2.43;2.23;;;21.30;88.20;;;;;;5045395;27;20449;-41
2021/08/09 03:10:10;;;;;;;2.83;2.10;;;21.10;89.10;;;;;;5046654;28;20516;-38
2021/08/09 03:12:41;;;;;;;1.93;1.73;;;21.10;89.20;;;;;;5053943;27;20443;-40
2021/08/09 03:15:14;;;;;;;2.13;1.93;;;21.00;89.50;;;;;;5047741;27;20457;-41
2021/08/09 03:17:47;;;;;;;10.33;2.30;;;20.90;89.30;;;;;;5040016;28;20454;-37
2021/08/09 03:20:18;;;;;;;2.60;1.77;;;20.80;89.80;;;;;;5028562;28;20446;-41
2021/08/09 03:22:49;;;;;;;3.73;1.70;;;20.70;89.80;;;;;;5064098;27;20523;-39
2021/08/09 03:25:21;;;;;;;2.90;1.60;;;20.70;90.20;;;;;;5051848;27;20473;-42
2021/08/09 03:27:52;;;;;;;2.17;1.50;;;20.60;90.80;;;;;;5039422;28;20461;-42
2021/08/09 03:30:26;;;;;;;4.57;2.00;;;20.50;91.20;;;;;;5038941;28;20485;-41
2021/08/09 03:33:00;;;;;;;6.53;2.10;;;20.50;91.60;;;;;;5038168;28;20423;-40
2021/08/09 03:35:31;;;;;;;2.00;1.90;;;20.40;91.80;;;;;;5038403;28;20483;-42
2021/08/09 03:38:02;;;;;;;3.77;2.10;;;20.30;92.30;;;;;;5039610;28;20445;-42
2021/08/09 03:40:33;;;;;;;3.47;2.17;;;20.30;92.60;;;;;;5039529;28;20498;-41
2021/08/09 03:43:04;;;;;;;4.13;1.90;;;20.20;92.90;;;;;;5042335;28;20505;-41
2021/08/09 03:45:36;;;;;;;1.77;1.67;;;20.10;93.30;;;;;;5036845;28;20481;-40
2021/08/09 03:48:10;;;;;;;3.10;2.27;;;20.00;93.80;;;;;;5039584;28;20450;-41
2021/08/09 03:50:41;;;;;;;2.70;2.17;;;20.00;94.10;;;;;;5038289;28;20439;-41
2021/08/09 03:53:12;;;;;;;1.70;1.60;;;19.90;94.70;;;;;;5039041;28;20449;-42
2021/08/09 03:55:44;;;;;;;2.37;1.77;;;19.90;95.10;;;;;;5039224;28;21095;-41
2021/08/09 03:58:15;;;;;;;2.37;2.10;;;19.80;95.40;;;;;;5040871;28;20790;-41
2021/08/09 04:00:48;;;;;;;3.97;2.23;;;19.80;95.90;;;;;;5060639;28;20412;-42
2021/08/09 04:03:19;;;;;;;3.77;1.90;;;19.70;96.30;;;;;;5043537;27;20440;-41
2021/08/09 04:05:50;;;;;;;2.20;1.90;;;19.80;96.70;;;;;;5041768;28;20480;-37
2021/08/09 04:08:21;;;;;;;2.47;2.00;;;19.60;97.00;;;;;;5033414;28;20449;-40
2021/08/09 04:10:52;;;;;;;1.87;1.73;;;19.60;97.40;;;;;;5041806;28;20905;-36
2021/08/09 04:13:23;;;;;;;2.70;1.83;;;19.50;97.80;;;;;;5040326;28;20492;-42
2021/08/09 04:15:55;;;;;;;4.57;2.17;;;19.50;98.20;;;;;;5040001;28;20872;-39
2021/08/09 04:18:27;;;;;;;3.00;2.07;;;19.50;98.60;;;;;;5046810;27;20452;-42
2021/08/09 04:20:58;;;;;;;2.50;2.00;;;19.40;99.10;;;;;;5040848;28;20426;-42
2021/08/09 04:23:29;;;;;;;2.37;1.90;;;19.30;99.50;;;;;;5042515;28;20506;-41
2021/08/09 04:26:00;;;;;;;2.03;1.63;;;19.30;99.70;;;;;;5049623;28;20461;-43
2021/08/09 04:28:31;;;;;;;3.30;2.47;;;19.30;99.90;;;;;;5048768;28;20450;-41
2021/08/09 04:31:04;;;;;;;1.60;1.50;;;19.20;99.90;;;;;;5042289;28;20500;-41
2021/08/09 04:33:43;;;;;;;4.80;2.33;;;19.20;99.90;;;;;;5042745;28;20461;-42
2021/08/09 04:36:14;;;;;;;3.33;1.80;;;19.10;99.90;;;;;;5041573;28;20804;-42
2021/08/09 04:38:45;;;;;;;2.10;1.90;;;19.10;99.90;;;;;;5041660;28;20843;-41
2021/08/09 04:41:16;;;;;;;4.03;1.70;;;19.00;99.90;;;;;;5042233;28;20444;-41
2021/08/09 04:43:47;;;;;;;3.00;2.07;;;19.00;99.90;;;;;;5050367;28;20476;-41
2021/08/09 04:46:20;;;;;;;2.30;2.00;;;18.90;99.90;;;;;;5036669;28;20434;-41
2021/08/09 04:48:51;;;;;;;2.33;2.00;;;18.90;99.90;;;;;;5042690;28;20887;-42
2021/08/09 04:51:22;;;;;;;4.10;2.10;;;18.90;99.90;;;;;;5040154;28;20471;-41
2021/08/09 04:53:53;;;;;;;2.87;1.90;;;18.90;99.90;;;;;;5048856;27;20470;-41
2021/08/09 04:56:24;;;;;;;1.70;1.60;;;18.80;99.90;;;;;;5042061;28;20525;-42
2021/08/09 04:58:55;;;;;;;2.57;1.63;;;18.80;99.90;;;;;;5041763;28;20477;-42
2021/08/09 05:01:27;;;;;;;2.23;1.97;;;18.70;99.90;;;;;;5040834;28;20434;-41
2021/08/09 05:03:58;;;;;;;2.60;1.80;;;18.70;99.90;;;;;;5046323;27;20830;-42
2021/08/09 05:06:30;;;;;;;3.93;1.90;;;18.60;99.90;;;;;;5045572;27;20575;-41
2021/08/09 05:09:00;;;;;;;3.83;1.80;;;18.60;99.90;;;;;;5041331;28;20482;-41
2021/08/09 05:11:31;;;;;;;4.23;2.20;;;18.50;99.90;;;;;;5035464;28;20470;-42
2021/08/09 05:14:02;;;;;;;2.17;1.63;;;18.50;99.90;;;;;;5040882;28;20464;-41
2021/08/09 05:16:37;;;;;;;3.90;2.17;;;18.50;99.90;;;;;;5044933;28;20483;-40
2021/08/09 05:19:09;;;;;;;1.93;1.70;;;18.40;99.90;;;;;;5049263;28;20806;-41
2021/08/09 05:21:40;;;;;;;3.07;1.80;;;18.40;99.90;;;;;;5040768;28;20909;-41
2021/08/09 05:24:11;;;;;;;4.87;2.03;;;18.40;99.90;;;;;;5050495;28;20525;-39
2021/08/09 05:26:42;;;;;;;2.27;1.70;;;18.30;99.90;;;;;;5043174;28;20532;-41
2021/08/09 05:29:13;;;;;;;4.93;1.70;;;18.30;99.90;;;;;;5044274;28;20510;-42
2021/08/09 05:31:46;;;;;;;1.87;1.77;;;18.30;99.90;;;;;;5041658;28;20488;-41
2021/08/09 05:34:17;;;;;;;2.13;1.67;;;18.30;99.90;;;;;;5050226;28;20484;-41
2021/08/09 05:36:48;;;;;;;2.90;1.40;;;18.20;99.90;;;;;;5046430;28;20450;-42
2021/08/09 05:39:19;;;;;;;2.37;1.80;;;18.20;99.90;;;;;;5047326;28;20472;-42
2021/08/09 05:41:50;;;;;;;2.10;1.80;;;18.20;99.90;;;;;;5052359;28;20456;-42
2021/08/09 05:44:21;;;;;;;1.77;1.37;;;18.10;99.90;;;;;;5040780;28;20473;-41
2021/08/09 05:46:53;;;;;;;1.70;1.30;;;18.00;99.90;;;;;;5049397;28;20755;-41
2021/08/09 05:49:25;;;;;;;2.30;1.70;;;17.90;99.90;;;;;;5041095;28;20480;-40
2021/08/09 05:51:55;;;;;;;2.13;1.50;;;17.90;99.90;;;;;;5044787;28;20449;-40
2021/08/09 05:54:26;;;;;;;2.50;1.63;;;17.90;99.90;;;;;;5043876;28;20841;-41
2021/08/09 05:56:57;;;;;;;3.47;1.63;;;17.90;99.90;;;;;;5043274;28;20803;-39
2021/08/09 05:59:28;;;;;;;1.90;1.73;;;17.90;99.90;;;;;;5044220;28;20918;-41
2021/08/09 06:02:01;;;;;;;1.80;1.63;;;17.80;99.90;;;;;;5047777;28;20460;-40
2021/08/09 06:04:34;;;;;;;1.60;1.50;;;17.90;99.90;;;;;;5043361;28;20485;-40
2021/08/09 06:07:05;;;;;;;2.20;1.80;;;17.90;99.90;;;;;;5045449;28;20449;-41
2021/08/09 06:09:36;;;;;;;2.40;2.10;;;17.80;99.90;;;;;;5047292;28;20823;-41
2021/08/09 06:12:07;;;;;;;1.93;1.57;;;17.80;99.90;;;;;;5040869;28;20449;-41
2021/08/09 06:14:39;;;;;;;2.40;1.70;;;17.70;99.90;;;;;;5045785;28;20488;-41
2021/08/09 06:17:12;;;;;;;2.73;1.90;;;17.70;99.90;;;;;;5043643;28;20442;-40
2021/08/09 06:19:42;;;;;;;3.70;2.20;;;17.60;99.90;;;;;;5045396;28;20453;-40
2021/08/09 06:22:13;;;;;;;3.27;1.83;;;17.70;99.90;;;;;;5039927;28;20454;-42
2021/08/09 06:24:44;;;;;;;4.20;1.90;;;17.60;99.90;;;;;;5040281;28;20957;-43
2021/08/09 06:27:15;;;;;;;2.43;2.23;;;17.60;99.90;;;;;;5041594;28;20502;-40
2021/08/09 06:29:46;;;;;;;2.80;1.90;;;17.50;99.90;;;;;;5044294;28;20518;-41
2021/08/09 06:32:19;;;;;;;1.87;1.77;;;17.50;99.90;;;;;;5040303;28;21002;-41
2021/08/09 06:34:50;;;;;;;2.37;2.17;;;17.50;99.90;;;;;;5046533;28;20453;-40
2021/08/09 06:37:21;;;;;;;4.90;2.67;;;17.40;99.90;;;;;;5046599;28;20499;-41
2021/08/09 06:39:52;;;;;;;3.10;2.23;;;17.40;99.90;;;;;;5043674;28;20473;-40
2021/08/09 06:42:23;;;;;;;3.70;2.13;;;17.30;99.90;;;;;;5041557;28;20458;-40
2021/08/09 06:44:53;;;;;;;2.40;2.20;;;17.30;99.90;;;;;;5041222;28;20496;-39
2021/08/09 06:47:26;;;;;;;2.47;1.83;;;17.30;99.90;;;;;;5040779;28;20478;-39
2021/08/09 06:49:57;;;;;;;4.60;2.20;;;17.30;99.90;;;;;;5040437;28;20458;-41
2021/08/09 06:52:29;;;;;;;4.30;2.57;;;17.30;99.90;;;;;;5048468;28;20449;-40
2021/08/09 06:55:00;;;;;;;4.47;2.00;;;17.30;99.90;;;;;;5041123;28;20587;-41
2021/08/09 06:57:31;;;;;;;3.23;2.23;;;17.20;99.90;;;;;;5040335;28;20522;-39
2021/08/09 07:00:02;;;;;;;4.43;2.30;;;17.20;99.90;;;;;;5040903;28;20797;-41
2021/08/09 07:02:36;;;;;;;4.23;2.67;;;17.20;99.90;;;;;;5046250;28;20513;-40
2021/08/09 07:05:08;;;;;;;4.40;2.40;;;17.10;99.90;;;;;;5048170;28;20508;-41
2021/08/09 07:07:40;;;;;;;7.10;2.90;;;17.10;99.90;;;;;;5042975;28;20523;-40
2021/08/09 07:10:12;;;;;;;4.10;2.47;;;17.00;99.90;;;;;;5043514;28;20514;-39
2021/08/09 07:12:43;;;;;;;3.83;3.43;;;17.00;99.90;;;;;;5040422;28;20477;-42
2021/08/09 07:15:14;;;;;;;4.27;2.60;;;17.00;99.90;;;;;;5041510;28;20437;-41
2021/08/09 07:17:47;;;;;;;5.07;2.47;;;17.00;99.90;;;;;;5041888;28;20589;-40
2021/08/09 07:20:18;;;;;;;3.70;3.27;;;17.00;99.90;;;;;;5040129;28;20569;-40
2021/08/09 07:22:50;;;;;;;4.07;2.60;;;16.90;99.90;;;;;;5045796;28;20517;-41
2021/08/09 07:25:21;;;;;;;4.90;2.40;;;16.90;99.90;;;;;;5041863;28;20481;-40
2021/08/09 07:27:52;;;;;;;4.57;3.23;;;16.90;99.90;;;;;;5041525;28;20465;-42
2021/08/09 07:30:23;;;;;;;2.80;2.60;;;16.90;99.90;;;;;;5038613;28;20484;-39
2021/08/09 07:32:57;;;;;;;4.33;2.47;;;16.80;99.90;;;;;;5039938;28;20496;-40
2021/08/09 07:35:28;;;;;;;3.93;2.80;;;16.80;99.90;;;;;;5040169;28;20492;-40
2021/08/09 07:37:59;;;;;;;4.93;2.50;;;16.80;99.90;;;;;;5044596;28;20449;-40
2021/08/09 07:40:30;;;;;;;4.70;2.50;;;16.80;99.90;;;;;;5048716;28;20469;-40
2021/08/09 07:43:01;;;;;;;3.37;2.47;;;16.80;99.90;;;;;;5039916;28;20465;-40
2021/08/09 07:45:32;;;;;;;4.07;3.27;;;16.70;99.90;;;;;;5039732;28;20519;-38
2021/08/09 07:48:05;;;;;;;4.97;3.17;;;16.70;99.90;;;;;;5040328;28;20953;-40
2021/08/09 07:50:38;;;;;;;3.20;2.20;;;16.70;99.90;;;;;;5041456;28;20520;-40
2021/08/09 07:53:10;;;;;;;4.37;2.50;;;16.60;99.90;;;;;;5038499;28;20463;-41
2021/08/09 07:55:41;;;;;;;3.73;3.20;;;16.60;99.90;;;;;;5048837;28;20464;-40
2021/08/09 07:58:12;;;;;;;4.70;3.20;;;16.60;99.90;;;;;;5036678;28;20673;-39
2021/08/09 08:00:44;;;;;;;4.73;3.00;;;16.60;99.90;;;;;;5039370;28;20484;-41
2021/08/09 08:03:17;;;;;;;4.97;3.00;;;16.60;99.90;;;;;;5040646;28;20485;-41
2021/08/09 08:05:48;;;;;;;3.60;3.07;;;16.60;99.90;;;;;;5035776;28;20496;-40
2021/08/09 08:08:20;;;;;;;7.00;3.17;;;16.60;99.90;;;;;;5055057;28;20536;-41
2021/08/09 08:10:51;;;;;;;3.20;2.57;;;16.60;99.90;;;;;;5041676;28;20460;-40
2021/08/09 08:13:22;;;;;;;3.47;3.13;;;16.60;99.90;;;;;;5038962;28;21171;-41
2021/08/09 08:15:52;;;;;;;3.40;2.73;;;16.60;99.90;;;;;;5043150;28;20474;-40
2021/08/09 08:18:25;;;;;;;4.43;2.73;;;16.50;99.90;;;;;;5051247;28;21206;-39
2021/08/09 08:20:56;;;;;;;3.57;3.27;;;16.50;99.90;;;;;;5038676;28;20464;-41
2021/08/09 08:23:27;;;;;;;3.40;3.10;;;16.40;99.90;;;;;;5044432;28;20449;-41
2021/08/09 08:25:58;;;;;;;3.40;3.10;;;16.40;99.90;;;;;;5039337;28;20488;-40
2021/08/09 08:28:29;;;;;;;7.37;3.33;;;16.40;99.90;;;;;;5039981;28;20441;-42
2021/08/09 08:31:00;;;;;;;3.60;3.20;;;16.30;99.90;;;;;;5040462;28;20472;-40
2021/08/09 08:33:33;;;;;;;4.07;3.30;;;16.30;99.90;;;;;;5039081;28;20477;-39
2021/08/09 08:36:04;;;;;;;7.40;2.90;;;16.40;99.90;;;;;;5038579;28;20873;-42
2021/08/09 08:38:36;;;;;;;3.20;2.60;;;16.40;99.90;;;;;;5039499;28;20480;-40
2021/08/09 08:41:08;;;;;;;6.93;3.73;;;16.40;99.90;;;;;;5052845;28;20445;-40
2021/08/09 08:43:39;;;;;;;5.77;3.20;;;16.40;99.90;;;;;;5039845;28;20974;-41
2021/08/09 08:46:10;;;;;;;6.27;3.80;;;16.30;99.90;;;;;;5039625;28;20555;-40
2021/08/09 08:48:43;;;;;;;6.83;3.30;;;16.20;99.90;;;;;;5041808;28;20468;-40
2021/08/09 08:51:28;;;;;;;8.90;3.90;;;16.20;99.90;;;;;;5041471;28;20479;-40
2021/08/09 08:53:59;;;;;;;9.93;4.00;;;16.20;99.90;;;;;;5052576;28;20493;-41
2021/08/09 08:56:29;;;;;;;4.63;3.40;;;16.20;99.90;;;;;;5048164;28;20479;-40
2021/08/09 08:59:00;;;;;;;4.63;4.23;;;16.20;99.90;;;;;;5047535;28;20468;-40
2021/08/09 09:01:36;;;;;;;3.70;2.80;;;16.20;99.90;;;;;;5043706;28;20781;-39
2021/08/09 09:04:27;;;;;;;4.63;3.33;;;16.20;99.90;;;;;;5031214;28;20509;-40
2021/08/09 09:07:03;;;;;;;5.07;3.20;;;16.20;99.90;;;;;;5042136;28;20497;-39
2021/08/09 09:09:36;;;;;;;3.90;3.43;;;16.10;99.90;;;;;;5042784;28;20478;-42
2021/08/09 09:12:19;;;;;;;5.83;3.93;;;16.10;99.90;;;;;;5054222;28;21043;-40
2021/08/09 09:15:03;;;;;;;4.90;3.50;;;16.10;99.90;;;;;;5043799;28;20456;-40
2021/08/09 09:17:35;;;;;;;11.73;3.93;;;16.10;99.90;;;;;;5055319;28;20462;-40
2021/08/09 09:20:26;;;;;;;6.10;3.40;;;16.10;99.90;;;;;;5047720;28;20878;-41
2021/08/09 09:23:14;;;;;;;5.10;3.50;;;16.10;99.90;;;;;;5046883;28;20525;-40
2021/08/09 09:25:46;;;;;;;4.40;3.60;;;16.00;99.90;;;;;;5041603;28;20453;-40
2021/08/09 09:28:28;;;;;;;7.77;4.10;;;16.00;99.90;;;;;;5042808;28;20489;-41
2021/08/09 09:31:05;;;;;;;7.80;3.60;;;16.00;99.90;;;;;;5045674;28;20485;-41
2021/08/09 09:33:36;;;;;;;5.33;3.13;;;15.90;99.90;;;;;;5035933;28;20449;-40
2021/08/09 09:36:08;;;;;;;3.87;3.27;;;15.90;99.90;;;;;;5054498;28;20448;-42
2021/08/09 09:38:43;;;;;;;4.00;3.43;;;16.00;99.90;;;;;;5050816;28;20858;-41
2021/08/09 09:41:14;;;;;;;4.93;2.97;;;15.90;99.90;;;;;;5051245;28;20473;-41
2021/08/09 09:43:46;;;;;;;6.20;3.80;;;15.90;99.90;;;;;;5042830;28;20453;-42
2021/08/09 09:46:28;;;;;;;4.07;3.67;;;15.90;99.90;;;;;;5041616;28;20453;-41
2021/08/09 09:49:05;;;;;;;4.10;3.57;;;15.90;99.90;;;;;;5046271;28;20455;-41
2021/08/09 09:51:45;;;;;;;4.73;3.70;;;15.80;99.90;;;;;;5040905;28;20538;-39
2021/08/09 09:54:16;;;;;;;8.87;4.20;;;15.80;99.90;;;;;;5056699;28;20448;-41
2021/08/09 09:56:47;;;;;;;4.00;3.30;;;15.80;99.90;;;;;;5025747;28;20545;-39
2021/08/09 09:59:19;;;;;;;3.90;3.43;;;15.80;99.90;;;;;;5048724;28;20446;-40
2021/08/09 10:01:52;;;;;;;5.03;3.60;;;15.80;99.90;;;;;;5046377;28;20954;-43
2021/08/09 10:04:25;;;;;;;4.93;3.90;;;15.80;99.90;;;;;;5040434;28;20438;-41
2021/08/09 10:06:57;;;;;;;6.63;3.77;;;15.80;99.90;;;;;;5041392;28;20551;-40
2021/08/09 10:09:32;;;;;;;7.77;3.70;;;15.80;99.90;;;;;;5050960;28;20491;-40
2021/08/09 10:12:04;;;;;;;5.10;3.73;;;15.80;99.90;;;;;;5040837;28;20449;-40
2021/08/09 10:14:36;;;;;;;6.37;3.93;;;15.70;99.90;;;;;;5042992;28;20912;-40
2021/08/09 10:17:08;;;;;;;7.70;3.83;;;15.70;99.90;;;;;;5041017;28;20450;-39
2021/08/09 10:19:39;;;;;;;4.97;3.73;;;15.70;99.90;;;;;;5041585;28;20445;-41
2021/08/09 10:22:12;;;;;;;3.97;3.30;;;15.70;99.90;;;;;;5024401;28;20453;-39
2021/08/09 10:24:58;;;;;;;7.93;3.67;;;15.70;99.90;;;;;;5037209;28;20446;-40
2021/08/09 10:27:56;;;;;;;6.20;3.90;;;15.70;99.90;;;;;;5041487;28;20528;-41
2021/08/09 10:30:46;;;;;;;4.20;3.80;;;15.60;99.90;;;;;;5027445;28;20477;-40
2021/08/09 10:33:50;;;;;;;5.67;3.90;;;15.60;99.90;;;;;;5041089;28;20600;-40
2021/08/09 10:36:22;;;;;;;5.57;3.50;;;15.60;99.90;;;;;;5039655;28;20488;-40
2021/08/09 10:38:58;;;;;;;6.80;3.70;;;15.60;99.90;;;;;;5040923;28;20522;-39
2021/08/09 10:41:39;;;;;;;4.30;3.63;;;15.60;99.90;;;;;;5036774;28;20456;-41
2021/08/09 10:44:26;;;;;;;6.50;4.87;;;15.50;99.90;;;;;;5042454;28;20485;-40
2021/08/09 10:46:58;;;;;;;5.17;4.17;;;15.50;99.90;;;;;;5042391;28;20480;-41
2021/08/09 10:49:59;;;;;;;5.73;3.80;;;15.50;99.90;;;;;;5040683;28;20561;-40
2021/08/09 10:52:38;;;;;;;3.50;3.10;;;15.50;99.90;;;;;;5049519;28;20480;-40
2021/08/09 10:55:48;;;;;;;4.37;3.93;;;15.50;99.90;;;;;;5035165;28;20473;-40
2021/08/09 10:58:58;;;;;;;6.70;3.83;;;15.50;99.90;;;;;;5059757;27;20914;-40
2021/08/09 11:01:49;;;;;;;3.80;3.40;;;15.50;99.90;;;;;;5044319;28;20456;-41
2021/08/09 11:04:20;;;;;;;5.20;3.07;;;15.40;99.90;;;;;;5042941;28;20448;-40
2021/08/09 11:06:55;;;;;;;6.63;3.90;;;15.40;99.90;;;;;;5039370;28;20477;-38
2021/08/09 11:09:43;;;;;;;5.77;3.37;;;15.40;99.90;;;;;;5040923;28;20481;-40
2021/08/09 11:12:22;;;;;;;4.20;3.40;;;15.40;99.90;;;;;;5047919;28;20817;-40
2021/08/09 11:15:18;;;;;;;3.63;2.93;;;15.40;99.90;;;;;;5040982;28;20453;-41
2021/08/09 11:17:51;;;;;;;3.70;3.40;;;15.30;99.90;;;;;;5045853;28;20453;-40
2021/08/09 11:20:25;;;;;;;6.23;3.50;;;15.30;99.90;;;;;;5052042;28;20478;-40
2021/08/09 11:23:07;;;;;;;6.67;3.63;;;15.30;99.90;;;;;;5042475;28;20492;-40
2021/08/09 11:25:40;;;;;;;5.37;3.17;;;15.20;99.90;;;;;;5040664;28;20442;-37
2021/08/09 11:28:13;;;;;;;4.03;3.20;;;15.20;99.90;;;;;;5041437;28;20573;-40
2021/08/09 11:30:49;;;;;;;5.73;3.67;;;15.20;99.90;;;;;;5039635;28;20484;-40
2021/08/09 11:33:22;;;;;;;8.30;3.97;;;15.10;99.90;;;;;;5040140;28;20460;-40
2021/08/09 11:35:54;;;;;;;3.80;3.33;;;15.10;99.90;;;;;;5040359;28;20544;-40
2021/08/09 11:38:25;;;;;;;3.77;3.43;;;15.00;99.90;;;;;;5044183;28;20458;-41
2021/08/09 11:41:00;;;;;;;7.37;3.57;;;14.90;99.90;;;;;;5040468;28;20467;-41
2021/08/09 11:43:32;;;;;;;3.63;3.33;;;14.90;99.90;;;;;;5051973;28;20456;-41
2021/08/09 11:46:06;;;;;;;5.00;3.60;;;14.90;99.90;;;;;;5034787;28;20469;-41
2021/08/09 11:48:39;;;;;;;3.43;3.13;;;14.90;99.90;;;;;;5040184;28;20548;-40
2021/08/09 11:51:12;;;;;;;5.50;3.17;;;14.90;99.90;;;;;;5050222;28;20483;-39
2021/08/09 11:53:51;;;;;;;4.87;3.57;;;14.90;99.90;;;;;;5039994;28;20886;-40
2021/08/09 11:56:24;;;;;;;3.23;2.70;;;14.90;99.90;;;;;;5039834;28;20498;-40
2021/08/09 11:58:55;;;;;;;3.50;3.13;;;14.90;99.90;;;;;;5040278;28;20469;-40
2021/08/09 12:01:38;;;;;;;5.73;3.63;;;14.90;99.90;;;;;;5049606;28;20452;-40
2021/08/09 12:04:12;;;;;;;3.50;3.20;;;14.90;99.90;;;;;;5039257;28;20461;-40
2021/08/09 12:06:50;;;;;;;3.40;3.10;;;14.80;99.90;;;;;;5030947;28;20448;-41
2021/08/09 12:09:25;;;;;;;5.40;3.40;;;14.90;99.90;;;;;;5045519;28;20496;-41
2021/08/09 12:11:59;;;;;;;5.30;2.60;;;14.90;99.90;;;;;;5040858;28;20507;-44
2021/08/09 12:14:30;;;;;;;3.47;3.17;;;14.90;99.90;;;;;;5039255;28;20493;-39
2021/08/09 12:17:14;;;;;;;3.67;3.03;;;14.90;99.90;;;;;;5045889;28;20453;-41
2021/08/09 12:19:46;;;;;;;4.77;3.47;;;15.00;99.90;;;;;;5043261;28;20489;-39
2021/08/09 12:22:18;;;;;;;4.53;3.20;;;15.10;99.90;;;;;;5039780;28;20445;-40
2021/08/09 12:25:07;;;;;;;5.03;4.03;;;15.20;99.90;;;;;;5041493;28;20453;-40
2021/08/09 12:27:38;;;;;;;4.13;3.77;;;15.30;99.90;;;;;;5043769;28;20452;-47
2021/08/09 12:30:11;;;;;;;3.50;3.20;;;15.40;99.90;;;;;;5048665;28;20449;-38
2021/08/09 12:32:45;;;;;;;3.63;3.10;;;15.40;99.90;;;;;;5030405;28;20988;-39
2021/08/09 12:35:18;;;;;;;6.93;3.67;;;15.50;99.90;;;;;;5047700;28;20539;-38
2021/08/09 12:37:56;;;;;;;4.83;3.00;;;15.60;99.90;;;;;;5046698;28;20453;-38
2021/08/09 12:40:27;;;;;;;5.60;3.53;;;15.70;99.90;;;;;;5042353;28;20485;-40
2021/08/09 12:43:06;;;;;;;3.73;3.40;;;15.70;99.90;;;;;;5042440;28;20450;-40
2021/08/09 12:45:38;;;;;;;3.73;3.43;;;15.70;99.90;;;;;;5041925;28;20456;-40
2021/08/09 12:48:11;;;;;;;3.67;3.33;;;15.80;99.90;;;;;;5041245;28;20480;-39
2021/08/09 12:50:44;;;;;;;4.93;3.30;;;16.00;99.90;;;;;;5042754;28;20486;-40
2021/08/09 12:53:15;;;;;;;5.37;3.37;;;16.00;99.90;;;;;;5041901;28;20464;-40
2021/08/09 12:55:46;;;;;;;5.40;3.50;;;16.00;99.90;;;;;;5035245;28;20461;-38
2021/08/09 12:58:18;;;;;;;4.63;3.53;;;16.00;99.90;;;;;;5048178;28;20499;-40
2021/08/09 13:00:49;;;;;;;3.70;3.40;;;16.00;99.90;;;;;;5047191;28;20453;-40
2021/08/09 13:03:21;;;;;;;9.10;3.07;;;16.10;99.90;;;;;;5049779;28;20437;-40
2021/08/09 13:05:52;;;;;;;5.10;3.63;;;16.10;99.90;;;;;;5045732;28;20463;-38
2021/08/09 13:08:23;;;;;;;3.90;3.50;;;16.10;99.90;;;;;;5048052;28;20480;-38
2021/08/09 13:10:56;;;;;;;5.93;4.07;;;16.10;99.90;;;;;;5045398;28;20492;-39
2021/08/09 13:13:27;;;;;;;3.63;2.93;;;16.10;99.90;;;;;;5042415;28;20454;-40
2021/08/09 13:15:58;;;;;;;3.13;2.87;;;16.10;99.90;;;;;;5054488;28;20487;-40
2021/08/09 13:18:32;;;;;;;4.07;3.40;;;16.00;99.90;;;;;;5061730;28;20444;-40
2021/08/09 13:21:04;;;;;;;5.10;3.33;;;16.00;99.90;;;;;;5048270;28;20502;-38